Time;durP1;ratioP1;P1;durP2;ratioP2;P2;SDS_P1;SDS_P2;PMS_P1;PMS_P2;Temp;Humidity;BMP_temperature;BMP_pressure;BME280_temperature;BME280_humidity;BME280_pressure;Samples;Min_cycle;Max_cycle;Signal;HPM_P1;HPM_P2
2023/03/16 00:00:00;;;;;;;4.63;4.20;;;;;;;;;;10189441;28;20040;-69
2023/03/16 00:04:55;;;;;;;5.28;4.10;;;;;;;;;;10189021;28;20052;-69
2023/03/16 00:09:48;;;;;;;6.60;5.32;;;;;;;;;;10188965;28;20028;-69
2023/03/16 00:14:43;;;;;;;6.28;4.35;;;;;;;;;;10189426;28;20072;-69
2023/03/16 00:19:36;;;;;;;5.55;3.92;;;;;;;;;;10189000;28;20395;-69
2023/03/16 00:24:31;;;;;;;6.38;5.60;;;;;;;;;;10188081;28;20511;-69
2023/03/16 00:29:25;;;;;;;5.60;5.00;;;;;;;;;;10186751;28;20044;-69
2023/03/16 00:34:18;;;;;;;5.03;4.53;;;;;;;;;;10187169;28;20076;-69
2023/03/16 00:39:13;;;;;;;6.40;4.32;;;;;;;;;;10188054;28;20496;-69
2023/03/16 00:44:08;;;;;;;5.57;4.30;;;;;;;;;;10185100;28;20048;-69
2023/03/16 00:49:01;;;;;;;6.10;5.40;;;;;;;;;;10168946;28;20040;-69
2023/03/16 00:53:55;;;;;;;5.68;4.75;;;;;;;;;;10180192;28;20050;-69
2023/03/16 00:58:48;;;;;;;5.55;4.05;;;;;;;;;;10185316;28;20044;-69
2023/03/16 01:03:41;;;;;;;5.57;4.93;;;;;;;;;;10184174;28;20134;-69
2023/03/16 01:08:35;;;;;;;5.72;4.60;;;;;;;;;;10185858;28;20048;-69
2023/03/16 01:13:28;;;;;;;12.63;8.15;;;;;;;;;;10178348;28;20165;-69
2023/03/16 01:18:22;;;;;;;17.25;10.52;;;;;;;;;;10186853;28;20133;-69
2023/03/16 01:23:17;;;;;;;22.95;12.52;;;;;;;;;;10184820;28;20050;-69
2023/03/16 01:28:12;;;;;;;12.07;9.25;;;;;;;;;;10174938;28;20044;-69
2023/03/16 01:33:05;;;;;;;8.63;7.07;;;;;;;;;;10176501;28;20051;-69
2023/03/16 01:37:59;;;;;;;13.80;8.68;;;;;;;;;;10184863;28;20052;-69
2023/03/16 01:43:04;;;;;;;15.85;9.75;;;;;;;;;;10178334;28;20048;-69
2023/03/16 01:48:02;;;;;;;9.98;8.60;;;;;;;;;;10164078;28;20044;-69
2023/03/16 01:52:56;;;;;;;13.75;9.43;;;;;;;;;;10169197;28;20048;-69
2023/03/16 01:57:50;;;;;;;9.30;7.80;;;;;;;;;;10186369;28;20131;-69
2023/03/16 02:02:47;;;;;;;8.63;7.50;;;;;;;;;;10157238;28;20040;-69
2023/03/16 02:07:51;;;;;;;10.25;9.10;;;;;;;;;;10168012;28;20071;-69
2023/03/16 02:12:44;;;;;;;10.80;7.47;;;;;;;;;;10183510;28;20117;-69
2023/03/16 02:17:39;;;;;;;9.80;8.18;;;;;;;;;;10167034;28;20052;-69
2023/03/16 02:22:38;;;;;;;10.57;7.85;;;;;;;;;;10184068;28;20516;-69
2023/03/16 02:27:38;;;;;;;10.90;8.93;;;;;;;;;;10183754;28;20059;-69
2023/03/16 02:32:31;;;;;;;15.67;8.33;;;;;;;;;;10185167;28;20059;-69
2023/03/16 02:37:26;;;;;;;10.23;8.25;;;;;;;;;;10183711;28;20051;-69
2023/03/16 02:42:22;;;;;;;11.15;7.93;;;;;;;;;;10171186;28;20468;-69
2023/03/16 02:47:40;;;;;;;12.30;8.98;;;;;;;;;;10167522;28;20139;-69
2023/03/16 02:52:35;;;;;;;9.55;7.88;;;;;;;;;;10185058;28;20126;-69
2023/03/16 02:57:30;;;;;;;10.02;9.00;;;;;;;;;;10187335;28;20063;-69
2023/03/16 03:02:29;;;;;;;9.23;7.70;;;;;;;;;;10175666;28;20044;-69
2023/03/16 03:07:31;;;;;;;10.25;7.70;;;;;;;;;;10191607;28;20094;-69
2023/03/16 03:12:28;;;;;;;8.30;7.25;;;;;;;;;;10190242;28;20060;-69
2023/03/16 03:17:28;;;;;;;11.77;6.53;;;;;;;;;;10189571;28;20130;-68
2023/03/16 03:22:22;;;;;;;5.95;5.20;;;;;;;;;;10190070;28;20067;-68
2023/03/16 03:27:14;;;;;;;5.65;5.07;;;;;;;;;;10190680;28;20047;-68
2023/03/16 03:32:08;;;;;;;7.57;5.53;;;;;;;;;;10175899;28;20087;-69
2023/03/16 03:37:01;;;;;;;6.88;4.22;;;;;;;;;;10189276;28;20055;-69
2023/03/16 03:41:56;;;;;;;7.43;4.18;;;;;;;;;;10190399;28;20048;-69
2023/03/16 03:46:50;;;;;;;5.00;4.50;;;;;;;;;;10186567;28;20032;-69
2023/03/16 03:51:44;;;;;;;5.35;3.83;;;;;;;;;;10183027;28;20412;-69
2023/03/16 03:56:41;;;;;;;5.85;3.88;;;;;;;;;;10185016;28;20082;-68
2023/03/16 04:01:40;;;;;;;6.27;4.23;;;;;;;;;;10203581;28;20078;-69
2023/03/16 04:06:33;;;;;;;5.97;3.22;;;;;;;;;;10174166;28;20051;-68
2023/03/16 04:11:27;;;;;;;4.88;3.88;;;;;;;;;;10188939;28;20052;-69
2023/03/16 04:16:20;;;;;;;5.75;5.00;;;;;;;;;;10186805;28;20079;-68
2023/03/16 04:21:17;;;;;;;5.80;3.75;;;;;;;;;;10203740;28;20046;-68
2023/03/16 04:26:12;;;;;;;5.13;3.72;;;;;;;;;;10181962;28;20063;-69
2023/03/16 04:31:09;;;;;;;3.90;3.60;;;;;;;;;;10180553;28;20516;-68
2023/03/16 04:36:07;;;;;;;3.85;3.55;;;;;;;;;;10172756;28;20475;-69
2023/03/16 04:41:03;;;;;;;3.80;3.47;;;;;;;;;;10156985;28;20052;-69
2023/03/16 04:46:01;;;;;;;4.67;3.70;;;;;;;;;;10178159;28;20496;-68
2023/03/16 04:50:56;;;;;;;9.98;4.38;;;;;;;;;;10176254;28;20400;-68
2023/03/16 04:55:53;;;;;;;4.10;3.75;;;;;;;;;;10185523;28;20052;-69
2023/03/16 05:00:47;;;;;;;4.28;3.88;;;;;;;;;;10180527;28;20048;-69
2023/03/16 05:05:46;;;;;;;8.27;3.80;;;;;;;;;;10170926;28;20417;-68
2023/03/16 05:10:40;;;;;;;4.65;3.97;;;;;;;;;;10185332;28;20040;-68
2023/03/16 05:15:34;;;;;;;5.72;4.82;;;;;;;;;;10181340;28;20070;-68
2023/03/16 05:20:38;;;;;;;5.85;4.93;;;;;;;;;;10184128;28;20056;-69
2023/03/16 05:25:33;;;;;;;8.38;5.45;;;;;;;;;;10184492;28;20048;-68
2023/03/16 05:30:30;;;;;;;9.60;4.95;;;;;;;;;;10168894;28;20048;-68
2023/03/16 05:35:29;;;;;;;9.95;5.30;;;;;;;;;;10174203;28;20048;-69
2023/03/16 05:40:27;;;;;;;7.32;5.75;;;;;;;;;;10182363;28;20412;-69
2023/03/16 05:45:36;;;;;;;8.52;5.30;;;;;;;;;;10112825;28;20063;-68
2023/03/16 05:50:40;;;;;;;11.95;5.97;;;;;;;;;;10101326;28;20482;-66
2023/03/16 05:55:34;;;;;;;10.43;5.32;;;;;;;;;;10102714;28;20052;-64
2023/03/16 06:00:29;;;;;;;8.52;5.03;;;;;;;;;;10102618;28;20126;-68
2023/03/16 06:05:34;;;;;;;6.18;4.47;;;;;;;;;;10103073;28;20402;-67
2023/03/16 06:10:28;;;;;;;7.15;5.07;;;;;;;;;;10102991;28;20056;-66
2023/03/16 06:15:25;;;;;;;8.90;4.82;;;;;;;;;;10092159;28;20083;-67
2023/03/16 06:20:20;;;;;;;5.47;4.73;;;;;;;;;;10100627;28;20424;-67
2023/03/16 06:25:14;;;;;;;5.45;4.57;;;;;;;;;;10109028;28;20049;-68
2023/03/16 06:30:13;;;;;;;9.77;4.38;;;;;;;;;;10136419;28;20045;-68
2023/03/16 06:35:06;;;;;;;8.98;4.03;;;;;;;;;;10105342;28;20060;-66
2023/03/16 06:40:00;;;;;;;7.10;4.50;;;;;;;;;;10090483;28;20040;-67
2023/03/16 06:44:53;;;;;;;5.40;4.85;;;;;;;;;;10163879;28;20067;-66
2023/03/16 06:49:47;;;;;;;8.52;7.63;;;;;;;;;;10183101;28;20048;-67
2023/03/16 06:54:44;;;;;;;12.40;7.32;;;;;;;;;;10181564;28;20627;-66
2023/03/16 06:59:40;;;;;;;12.25;9.13;;;;;;;;;;10181716;28;20431;-67
2023/03/16 07:04:33;;;;;;;19.08;7.75;;;;;;;;;;10182031;28;20071;-66
2023/03/16 07:09:28;;;;;;;38.67;21.75;;;;;;;;;;10186747;28;20051;-67
2023/03/16 07:14:22;;;;;;;24.20;13.02;;;;;;;;;;10187795;28;20492;-67
2023/03/16 07:19:17;;;;;;;21.85;9.95;;;;;;;;;;10190821;28;20048;-67
2023/03/16 07:24:11;;;;;;;21.30;7.43;;;;;;;;;;10188425;28;20044;-67
2023/03/16 07:29:05;;;;;;;18.50;11.05;;;;;;;;;;10176014;28;20044;-67
2023/03/16 07:34:01;;;;;;;18.33;8.45;;;;;;;;;;10183260;28;20044;-67
2023/03/16 07:39:05;;;;;;;12.10;6.85;;;;;;;;;;10185214;28;20040;-67
2023/03/16 07:43:59;;;;;;;9.50;6.80;;;;;;;;;;10205184;28;20055;-67
2023/03/16 07:48:52;;;;;;;10.88;6.90;;;;;;;;;;10184805;28;20040;-67
2023/03/16 07:53:46;;;;;;;22.02;6.85;;;;;;;;;;10184434;28;20055;-67
2023/03/16 07:58:43;;;;;;;17.70;6.87;;;;;;;;;;10187407;28;20105;-68
2023/03/16 08:03:38;;;;;;;9.93;5.10;;;;;;;;;;10186145;28;20044;-68
2023/03/16 08:08:32;;;;;;;11.07;5.50;;;;;;;;;;10186871;28;20059;-68
2023/03/16 08:13:26;;;;;;;14.77;4.75;;;;;;;;;;10188463;28;20093;-67
2023/03/16 08:18:20;;;;;;;17.40;5.07;;;;;;;;;;10188677;28;20575;-67
2023/03/16 08:23:14;;;;;;;25.67;5.32;;;;;;;;;;10181994;28;20047;-67
2023/03/16 08:28:08;;;;;;;10.02;4.88;;;;;;;;;;10183073;28;20048;-66
2023/03/16 08:33:03;;;;;;;9.90;4.88;;;;;;;;;;10184619;28;20399;-65
2023/03/16 08:37:56;;;;;;;15.32;7.90;;;;;;;;;;10173209;28;20067;-68
2023/03/16 08:42:49;;;;;;;14.05;7.05;;;;;;;;;;10177665;28;20428;-67
2023/03/16 08:47:44;;;;;;;11.93;7.45;;;;;;;;;;10182894;28;20040;-67
2023/03/16 08:52:40;;;;;;;5.57;4.68;;;;;;;;;;10181286;28;20068;-67
2023/03/16 08:57:33;;;;;;;4.53;3.55;;;;;;;;;;10187131;28;20131;-67
2023/03/16 09:02:28;;;;;;;3.45;2.42;;;;;;;;;;10186567;28;20044;-68
2023/03/16 09:07:21;;;;;;;9.30;3.17;;;;;;;;;;10185980;28;20106;-67
2023/03/16 09:12:15;;;;;;;5.05;4.05;;;;;;;;;;10186785;28;20481;-68
2023/03/16 09:17:10;;;;;;;6.82;3.50;;;;;;;;;;10186483;28;20063;-67
2023/03/16 09:22:03;;;;;;;7.95;3.53;;;;;;;;;;10185977;28;20076;-68
2023/03/16 09:26:57;;;;;;;7.57;4.82;;;;;;;;;;10186134;28;20080;-67
2023/03/16 09:31:50;;;;;;;6.47;3.50;;;;;;;;;;10185386;28;20488;-68
2023/03/16 09:36:43;;;;;;;7.95;2.90;;;;;;;;;;10185885;28;20044;-68
2023/03/16 09:42:10;;;;;;;4.60;2.97;;;;;;;;;;10185499;28;20487;-68
2023/03/16 09:47:05;;;;;;;2.92;2.60;;;;;;;;;;10171180;28;20053;-68
2023/03/16 09:52:17;;;;;;;3.65;3.08;;;;;;;;;;10183541;28;20127;-68
2023/03/16 09:57:21;;;;;;;4.38;2.15;;;;;;;;;;10181925;28;20059;-68
2023/03/16 10:02:39;;;;;;;3.78;1.95;;;;;;;;;;10187399;28;20510;-68
2023/03/16 10:07:32;;;;;;;;;;;;;;;;;;10193293;28;20078;-66
2023/03/16 10:12:30;;;;;;;2.83;1.77;;;;;;;;;;10197056;28;19920;-66
2023/03/16 10:17:37;;;;;;;6.70;2.50;;;;;;;;;;10191107;28;20047;-67
2023/03/16 10:22:39;;;;;;;4.65;1.67;;;;;;;;;;10170219;28;20044;-66
2023/03/16 10:27:39;;;;;;;2.15;1.50;;;;;;;;;;10158570;28;20094;-66
2023/03/16 10:32:35;;;;;;;3.97;1.42;;;;;;;;;;10184904;28;20101;-66
2023/03/16 10:37:30;;;;;;;7.57;1.17;;;;;;;;;;10186600;28;20394;-66
2023/03/16 10:42:25;;;;;;;4.07;1.30;;;;;;;;;;10185183;28;20415;-66
2023/03/16 10:47:23;;;;;;;2.05;1.00;;;;;;;;;;10184799;28;20060;-66
2023/03/16 10:52:25;;;;;;;2.47;0.80;;;;;;;;;;10180262;28;20044;-66
2023/03/16 10:57:35;;;;;;;1.65;0.65;;;;;;;;;;10182612;28;20040;-68
2023/03/16 11:02:33;;;;;;;4.05;0.70;;;;;;;;;;10181178;28;20055;-66
2023/03/16 11:07:26;;;;;;;3.60;0.52;;;;;;;;;;10184178;28;20051;-66
2023/03/16 11:12:27;;;;;;;2.97;0.80;;;;;;;;;;10187105;28;20151;-66
2023/03/16 11:17:43;;;;;;;0.80;0.47;;;;;;;;;;10160210;28;20060;-66
2023/03/16 11:22:37;;;;;;;2.35;0.60;;;;;;;;;;10172545;28;20052;-66
2023/03/16 11:27:47;;;;;;;2.92;1.15;;;;;;;;;;10190550;28;20072;-66
2023/03/16 11:33:05;;;;;;;0.65;0.50;;;;;;;;;;10179333;28;20075;-66
2023/03/16 11:38:17;;;;;;;5.30;1.00;;;;;;;;;;10182861;28;20044;-66
2023/03/16 11:43:25;;;;;;;2.78;0.73;;;;;;;;;;10173275;28;20060;-67
2023/03/16 11:48:20;;;;;;;3.10;1.83;;;;;;;;;;10189175;28;20134;-67
2023/03/16 11:53:35;;;;;;;0.93;0.80;;;;;;;;;;10170926;28;20420;-68
2023/03/16 11:58:37;;;;;;;13.13;2.83;;;;;;;;;;10185047;28;20056;-68
2023/03/16 12:03:38;;;;;;;3.67;1.70;;;;;;;;;;10189625;28;20055;-68
2023/03/16 12:08:56;;;;;;;3.35;2.30;;;;;;;;;;10182024;28;20056;-67
2023/03/16 12:14:04;;;;;;;3.28;2.33;;;;;;;;;;10188862;28;20118;-67
2023/03/16 12:19:05;;;;;;;2.63;1.65;;;;;;;;;;10183765;28;20059;-67
2023/03/16 12:24:05;;;;;;;3.60;2.28;;;;;;;;;;10188004;28;20078;-67
2023/03/16 12:29:00;;;;;;;5.93;2.00;;;;;;;;;;10186925;28;20113;-67
2023/03/16 12:34:00;;;;;;;4.72;1.70;;;;;;;;;;10190928;28;20048;-67
2023/03/16 12:39:33;;;;;;;6.38;2.85;;;;;;;;;;10187399;28;20052;-67
2023/03/16 12:44:49;;;;;;;3.63;1.65;;;;;;;;;;10049076;28;20065;-67
2023/03/16 12:49:48;;;;;;;4.88;1.98;;;;;;;;;;10174744;28;20044;-67
2023/03/16 12:54:52;;;;;;;2.90;1.83;;;;;;;;;;10179697;28;20055;-67
2023/03/16 12:59:46;;;;;;;2.78;1.40;;;;;;;;;;10176809;28;20079;-67
2023/03/16 13:04:43;;;;;;;4.93;2.35;;;;;;;;;;10171169;28;20584;-69
2023/03/16 13:09:41;;;;;;;2.28;1.63;;;;;;;;;;10184157;28;20138;-67
2023/03/16 13:14:43;;;;;;;2.33;1.70;;;;;;;;;;10185124;28;20056;-67
2023/03/16 13:19:36;;;;;;;3.00;1.60;;;;;;;;;;10165563;28;20420;-67
2023/03/16 13:24:38;;;;;;;4.78;1.40;;;;;;;;;;10182952;28;20050;-67
2023/03/16 13:29:32;;;;;;;7.35;3.50;;;;;;;;;;10170234;28;20514;-67
2023/03/16 13:34:34;;;;;;;1.90;1.63;;;;;;;;;;10181979;28;20043;-67
2023/03/16 13:39:28;;;;;;;2.15;1.60;;;;;;;;;;10183695;28;20110;-67
2023/03/16 13:44:22;;;;;;;3.13;1.80;;;;;;;;;;10183788;28;20076;-66
2023/03/16 13:49:17;;;;;;;3.15;1.77;;;;;;;;;;10181962;28;20504;-67
2023/03/16 13:54:20;;;;;;;3.78;1.95;;;;;;;;;;10178935;28;20231;-67
2023/03/16 13:59:13;;;;;;;3.00;1.65;;;;;;;;;;10173855;28;20214;-67
2023/03/16 14:04:14;;;;;;;3.20;1.52;;;;;;;;;;10178353;28;20048;-66
2023/03/16 14:09:14;;;;;;;3.67;1.60;;;;;;;;;;10175349;28;20048;-67
2023/03/16 14:14:25;;;;;;;3.05;1.77;;;;;;;;;;10153824;28;20474;-67
2023/03/16 14:19:23;;;;;;;2.53;2.08;;;;;;;;;;10170841;28;20062;-67
2023/03/16 14:24:32;;;;;;;3.50;1.80;;;;;;;;;;10164666;28;20056;-66
2023/03/16 14:29:29;;;;;;;4.50;2.00;;;;;;;;;;10178592;28;20135;-66
2023/03/16 14:34:41;;;;;;;4.05;2.00;;;;;;;;;;10176544;28;20044;-66
2023/03/16 14:39:34;;;;;;;4.75;2.05;;;;;;;;;;10175476;28;20055;-66
2023/03/16 14:44:31;;;;;;;2.33;1.70;;;;;;;;;;10183053;28;20500;-66
2023/03/16 14:49:50;;;;;;;3.60;2.45;;;;;;;;;;10180393;28;20052;-66
2023/03/16 14:54:44;;;;;;;4.43;2.38;;;;;;;;;;10188001;28;20046;-66
2023/03/16 14:59:37;;;;;;;4.25;1.83;;;;;;;;;;10188817;28;20048;-66
2023/03/16 15:04:33;;;;;;;3.08;2.10;;;;;;;;;;10190623;28;20063;-66
2023/03/16 15:09:34;;;;;;;2.92;2.20;;;;;;;;;;10190274;28;20093;-65
2023/03/16 15:19:40;;;;;;;3.50;2.17;;;;;;;;;;10191497;28;20163;-65
2023/03/16 15:24:34;;;;;;;4.53;2.65;;;;;;;;;;10184923;28;20511;-67
2023/03/16 15:29:27;;;;;;;2.78;2.00;;;;;;;;;;10190266;28;20047;-65
2023/03/16 15:34:21;;;;;;;4.75;2.10;;;;;;;;;;10190007;28;20056;-65
2023/03/16 15:39:21;;;;;;;10.20;2.92;;;;;;;;;;10190319;28;20493;-66
2023/03/16 15:44:15;;;;;;;6.55;2.55;;;;;;;;;;10182728;28;20130;-66
2023/03/16 15:49:08;;;;;;;9.05;2.30;;;;;;;;;;10189347;28;20055;-66
2023/03/16 15:54:07;;;;;;;5.15;2.33;;;;;;;;;;10169790;28;20051;-66
2023/03/16 15:59:03;;;;;;;2.92;2.10;;;;;;;;;;10189444;28;20419;-66
2023/03/16 16:03:56;;;;;;;4.75;2.30;;;;;;;;;;10183560;28;20127;-64
2023/03/16 16:08:49;;;;;;;5.63;2.70;;;;;;;;;;10188296;28;20044;-66
2023/03/16 16:13:43;;;;;;;4.00;1.65;;;;;;;;;;10188144;28;20063;-66
2023/03/16 16:18:38;;;;;;;2.40;1.67;;;;;;;;;;10168602;28;20058;-66
2023/03/16 16:23:31;;;;;;;8.52;3.80;;;;;;;;;;10184623;28;20044;-66
2023/03/16 16:28:28;;;;;;;3.10;2.08;;;;;;;;;;10182824;28;20678;-66
2023/03/16 16:33:30;;;;;;;5.35;1.98;;;;;;;;;;10184527;28;20048;-66
2023/03/16 16:38:24;;;;;;;5.45;2.58;;;;;;;;;;10187085;28;20123;-65
2023/03/16 16:44:04;;;;;;;5.60;2.90;;;;;;;;;;10185746;28;20101;-66
2023/03/16 16:49:04;;;;;;;5.78;2.30;;;;;;;;;;10180258;28;20094;-75
2023/03/16 16:54:00;;;;;;;3.40;1.95;;;;;;;;;;10183709;28;20469;-76
2023/03/16 16:58:54;;;;;;;3.60;1.90;;;;;;;;;;10176064;28;20048;-65
2023/03/16 17:03:48;;;;;;;4.70;1.80;;;;;;;;;;10183630;28;20051;-65
2023/03/16 17:08:41;;;;;;;2.05;1.50;;;;;;;;;;10184060;28;20052;-65
2023/03/16 17:13:38;;;;;;;3.80;2.00;;;;;;;;;;10183847;28;20048;-65
2023/03/16 17:18:33;;;;;;;7.05;2.10;;;;;;;;;;10184047;28;20083;-65
2023/03/16 17:23:28;;;;;;;7.88;2.00;;;;;;;;;;10185096;28;20048;-65
2023/03/16 17:28:22;;;;;;;5.03;1.98;;;;;;;;;;10185971;28;20048;-67
2023/03/16 17:33:17;;;;;;;7.38;1.92;;;;;;;;;;10164925;28;20428;-67
2023/03/16 17:38:31;;;;;;;3.67;1.80;;;;;;;;;;10180378;28;20078;-66
2023/03/16 17:43:27;;;;;;;2.78;2.13;;;;;;;;;;10183743;28;20064;-65
2023/03/16 17:48:21;;;;;;;5.55;2.78;;;;;;;;;;10185443;28;20046;-67
2023/03/16 17:53:16;;;;;;;7.50;2.85;;;;;;;;;;10189190;28;20048;-68
2023/03/16 17:58:26;;;;;;;5.55;3.33;;;;;;;;;;10183976;28;20087;-67
2023/03/16 18:03:19;;;;;;;12.18;4.25;;;;;;;;;;10162744;28;20060;-67
2023/03/16 18:08:20;;;;;;;10.50;4.72;;;;;;;;;;10167198;28;20393;-66
2023/03/16 18:13:25;;;;;;;15.10;9.35;;;;;;;;;;10181209;28;20048;-67
2023/03/16 18:18:21;;;;;;;13.38;9.77;;;;;;;;;;10182170;28;20048;-66
2023/03/16 18:23:17;;;;;;;7.75;5.20;;;;;;;;;;10184182;28;20427;-66
2023/03/16 18:28:10;;;;;;;7.28;4.13;;;;;;;;;;10192615;28;20052;-67
2023/03/16 18:33:05;;;;;;;7.65;6.07;;;;;;;;;;10190242;28;20044;-66
2023/03/16 18:37:57;;;;;;;8.23;6.10;;;;;;;;;;10190750;28;20513;-67
2023/03/16 18:42:53;;;;;;;8.20;6.32;;;;;;;;;;10192306;28;20516;-68
2023/03/16 18:47:50;;;;;;;24.23;14.13;;;;;;;;;;10192764;28;20052;-68
2023/03/16 18:52:43;;;;;;;17.60;11.02;;;;;;;;;;10186454;28;20048;-67
2023/03/16 18:57:37;;;;;;;12.32;9.52;;;;;;;;;;10187827;28;20051;-68
2023/03/16 19:02:37;;;;;;;34.75;7.82;;;;;;;;;;10191985;28;20074;-67
2023/03/16 19:07:34;;;;;;;7.65;6.30;;;;;;;;;;10189195;28;20512;-68
2023/03/16 19:12:27;;;;;;;10.43;4.82;;;;;;;;;;10191333;28;20080;-67
2023/03/16 19:17:21;;;;;;;11.15;6.25;;;;;;;;;;10190824;28;20050;-67
2023/03/16 19:22:17;;;;;;;9.27;5.72;;;;;;;;;;10190989;28;20093;-67
2023/03/16 19:27:21;;;;;;;7.35;4.93;;;;;;;;;;10190757;28;20048;-68
2023/03/16 19:32:19;;;;;;;7.30;3.97;;;;;;;;;;10182922;28;20050;-67
2023/03/16 19:37:13;;;;;;;5.60;3.88;;;;;;;;;;10189637;28;20101;-73
2023/03/16 19:42:41;;;;;;;7.15;4.80;;;;;;;;;;10170620;28;20089;-70
2023/03/16 19:47:35;;;;;;;6.97;5.25;;;;;;;;;;10173630;28;20132;-67
2023/03/16 19:52:30;;;;;;;9.77;6.65;;;;;;;;;;10171366;28;20458;-67
2023/03/16 19:57:24;;;;;;;15.48;7.88;;;;;;;;;;10166417;28;20057;-66
2023/03/16 20:02:26;;;;;;;10.13;6.50;;;;;;;;;;10180043;28;20074;-67
2023/03/16 20:07:20;;;;;;;10.18;6.07;;;;;;;;;;10176706;28;20052;-66
2023/03/16 20:12:20;;;;;;;13.98;5.15;;;;;;;;;;10182553;28;20510;-66
2023/03/16 20:17:22;;;;;;;12.23;8.65;;;;;;;;;;10178708;28;20044;-67
2023/03/16 20:22:19;;;;;;;13.73;10.95;;;;;;;;;;10182955;28;20449;-67
2023/03/16 20:27:12;;;;;;;13.05;7.57;;;;;;;;;;10180130;28;20452;-66
2023/03/16 20:32:34;;;;;;;11.57;6.78;;;;;;;;;;10166385;28;20037;-67
2023/03/16 20:37:31;;;;;;;11.32;7.22;;;;;;;;;;10178362;28;20044;-65
2023/03/16 20:42:29;;;;;;;9.43;8.43;;;;;;;;;;10184391;28;20052;-66
2023/03/16 20:47:23;;;;;;;;;;;;;;;;;;10176272;28;20079;-66
2023/03/16 20:52:18;;;;;;;10.32;7.03;;;;;;;;;;10172847;28;19973;-68
2023/03/16 20:57:21;;;;;;;9.45;6.78;;;;;;;;;;10167342;28;20070;-68
2023/03/16 21:02:28;;;;;;;9.25;6.68;;;;;;;;;;10161332;28;20504;-66
2023/03/16 21:07:21;;;;;;;16.38;9.57;;;;;;;;;;10176975;28;20123;-64
2023/03/16 21:12:27;;;;;;;14.23;8.93;;;;;;;;;;10179481;28;20051;-75
2023/03/16 21:17:23;;;;;;;15.88;11.80;;;;;;;;;;10177033;28;20052;-65
2023/03/16 21:22:25;;;;;;;13.25;9.63;;;;;;;;;;10159060;28;20131;-66
2023/03/16 21:27:38;;;;;;;10.85;7.97;;;;;;;;;;10174574;28;20048;-66
2023/03/16 21:32:33;;;;;;;13.82;7.43;;;;;;;;;;10163194;28;20389;-66
2023/03/16 21:37:27;;;;;;;10.80;8.55;;;;;;;;;;10175415;28;20725;-66
2023/03/16 21:42:20;;;;;;;12.70;7.13;;;;;;;;;;10176786;28;20056;-66
2023/03/16 21:47:27;;;;;;;11.38;8.20;;;;;;;;;;10174359;28;20106;-66
2023/03/16 21:52:26;;;;;;;9.88;6.97;;;;;;;;;;10175409;28;20491;-65
2023/03/16 21:57:20;;;;;;;14.73;8.82;;;;;;;;;;10169132;28;20536;-65
2023/03/16 22:02:22;;;;;;;14.70;7.88;;;;;;;;;;10169620;28;20036;-65
2023/03/16 22:07:16;;;;;;;16.58;7.90;;;;;;;;;;10182784;28;20056;-65
2023/03/16 22:12:11;;;;;;;11.40;8.35;;;;;;;;;;10185561;28;20048;-65
2023/03/16 22:17:04;;;;;;;13.43;8.50;;;;;;;;;;10185147;28;20051;-65
2023/03/16 22:21:57;;;;;;;14.88;8.07;;;;;;;;;;10181000;28;20417;-65
2023/03/16 22:26:51;;;;;;;14.95;9.10;;;;;;;;;;10185497;28;20051;-66
2023/03/16 22:31:45;;;;;;;11.15;8.45;;;;;;;;;;10184553;28;20036;-65
2023/03/16 22:36:40;;;;;;;13.98;8.63;;;;;;;;;;10164442;28;20556;-65
2023/03/16 22:41:33;;;;;;;13.02;8.40;;;;;;;;;;10180794;28;20119;-66
2023/03/16 22:46:28;;;;;;;10.65;7.22;;;;;;;;;;10182326;28;20052;-65
2023/03/16 22:51:33;;;;;;;11.20;7.78;;;;;;;;;;10181931;28;20056;-65
2023/03/16 22:56:28;;;;;;;11.05;6.93;;;;;;;;;;10183083;28;20492;-66
2023/03/16 23:01:33;;;;;;;10.05;6.75;;;;;;;;;;10173012;28;20076;-65
2023/03/16 23:06:28;;;;;;;8.48;6.07;;;;;;;;;;10183642;28;20052;-66
2023/03/16 23:11:24;;;;;;;9.60;6.75;;;;;;;;;;10188069;28;20044;-66
2023/03/16 23:16:21;;;;;;;8.98;6.85;;;;;;;;;;10191169;28;20052;-65
2023/03/16 23:21:17;;;;;;;9.23;7.43;;;;;;;;;;10191380;28;20055;-66
2023/03/16 23:26:22;;;;;;;13.48;8.70;;;;;;;;;;10191336;28;20040;-65
2023/03/16 23:31:16;;;;;;;7.97;7.07;;;;;;;;;;10190843;28;20044;-66
2023/03/16 23:36:18;;;;;;;11.77;7.82;;;;;;;;;;10171511;28;20058;-66
2023/03/16 23:41:12;;;;;;;10.80;7.53;;;;;;;;;;10190677;28;20109;-66
2023/03/16 23:46:04;;;;;;;14.43;6.07;;;;;;;;;;10172296;28;20416;-66
2023/03/16 23:50:57;;;;;;;7.32;6.47;;;;;;;;;;10189961;28;20052;-66
2023/03/16 23:55:50;;;;;;;9.00;7.47;;;;;;;;;;10183943;28;20075;-66
